sensor_id;sensor_type;location;lat;lon;timestamp;pressure;altitude;pressure_sealevel;temperature;humidity
47726;BME280;33483;48.294;16.388;2023-02-19T00:01:05;99742.47;;;11.66;100.00
47726;BME280;33483;48.294;16.388;2023-02-19T00:03:42;99743.94;;;11.67;100.00
47726;BME280;33483;48.294;16.388;2023-02-19T00:06:13;99749.28;;;11.65;100.00
47726;BME280;33483;48.294;16.388;2023-02-19T00:08:40;99751.59;;;11.61;100.00
47726;BME280;33483;48.294;16.388;2023-02-19T00:11:10;99746.13;;;11.55;100.00
47726;BME280;33483;48.294;16.388;2023-02-19T00:13:38;99750.28;;;11.49;100.00
47726;BME280;33483;48.294;16.388;2023-02-19T00:16:13;99752.38;;;11.43;100.00
47726;BME280;33483;48.294;16.388;2023-02-19T00:18:41;99757.47;;;11.38;100.00
47726;BME280;33483;48.294;16.388;2023-02-19T00:21:08;99757.94;;;11.43;100.00
47726;BME280;33483;48.294;16.388;2023-02-19T00:23:38;99754.22;;;11.40;100.00
47726;BME280;33483;48.294;16.388;2023-02-19T00:26:06;99762.63;;;11.34;100.00
47726;BME280;33483;48.294;16.388;2023-02-19T00:28:45;99766.94;;;11.30;100.00
47726;BME280;33483;48.294;16.388;2023-02-19T00:33:40;99771.31;;;11.25;100.00
47726;BME280;33483;48.294;16.388;2023-02-19T00:36:07;99768.91;;;11.16;100.00
47726;BME280;33483;48.294;16.388;2023-02-19T00:38:35;99761.50;;;11.06;100.00
47726;BME280;33483;48.294;16.388;2023-02-19T00:41:03;99769.66;;;10.98;100.00
47726;BME280;33483;48.294;16.388;2023-02-19T00:46:19;99777.63;;;10.89;100.00
47726;BME280;33483;48.294;16.388;2023-02-19T00:48:47;99772.66;;;10.82;100.00
47726;BME280;33483;48.294;16.388;2023-02-19T00:51:14;99768.19;;;10.79;100.00
47726;BME280;33483;48.294;16.388;2023-02-19T00:53:42;99764.72;;;10.73;100.00
47726;BME280;33483;48.294;16.388;2023-02-19T00:56:11;99760.22;;;10.70;100.00
47726;BME280;33483;48.294;16.388;2023-02-19T00:58:38;99775.63;;;10.65;100.00
47726;BME280;33483;48.294;16.388;2023-02-19T01:01:06;99772.44;;;10.61;100.00
47726;BME280;33483;48.294;16.388;2023-02-19T01:03:37;99769.19;;;10.57;100.00
47726;BME280;33483;48.294;16.388;2023-02-19T01:06:05;99766.19;;;10.55;100.00
47726;BME280;33483;48.294;16.388;2023-02-19T01:08:32;99756.16;;;10.52;100.00
47726;BME280;33483;48.294;16.388;2023-02-19T01:11:00;99764.00;;;10.48;100.00
47726;BME280;33483;48.294;16.388;2023-02-19T01:13:30;99761.00;;;10.46;100.00
47726;BME280;33483;48.294;16.388;2023-02-19T01:18:31;99763.09;;;10.40;100.00
47726;BME280;33483;48.294;16.388;2023-02-19T01:20:58;99755.25;;;10.44;100.00
47726;BME280;33483;48.294;16.388;2023-02-19T01:23:27;99759.81;;;10.42;100.00
47726;BME280;33483;48.294;16.388;2023-02-19T01:25:55;99756.75;;;10.45;100.00
47726;BME280;33483;48.294;16.388;2023-02-19T01:28:22;99760.78;;;10.44;100.00
47726;BME280;33483;48.294;16.388;2023-02-19T01:30:49;99755.25;;;10.44;100.00
47726;BME280;33483;48.294;16.388;2023-02-19T01:33:16;99747.44;;;10.43;100.00
47726;BME280;33483;48.294;16.388;2023-02-19T01:35:43;99733.28;;;10.46;100.00
47726;BME280;33483;48.294;16.388;2023-02-19T01:38:10;99736.88;;;10.41;100.00
47726;BME280;33483;48.294;16.388;2023-02-19T01:40:38;99731.88;;;10.40;100.00
47726;BME280;33483;48.294;16.388;2023-02-19T01:43:08;99726.31;;;10.40;100.00
47726;BME280;33483;48.294;16.388;2023-02-19T01:45:37;99725.56;;;10.39;100.00
47726;BME280;33483;48.294;16.388;2023-02-19T01:48:11;99723.78;;;10.42;100.00
47726;BME280;33483;48.294;16.388;2023-02-19T01:50:44;99714.47;;;10.39;100.00
47726;BME280;33483;48.294;16.388;2023-02-19T01:53:13;99716.22;;;10.42;100.00
47726;BME280;33483;48.294;16.388;2023-02-19T01:55:45;99709.69;;;10.40;100.00
47726;BME280;33483;48.294;16.388;2023-02-19T01:58:14;99716.53;;;10.39;100.00
47726;BME280;33483;48.294;16.388;2023-02-19T02:00:42;99730.66;;;10.35;100.00
47726;BME280;33483;48.294;16.388;2023-02-19T02:03:11;99721.91;;;10.31;100.00
47726;BME280;33483;48.294;16.388;2023-02-19T02:05:56;99715.69;;;10.25;100.00
47726;BME280;33483;48.294;16.388;2023-02-19T02:08:25;99701.59;;;10.23;100.00
47726;BME280;33483;48.294;16.388;2023-02-19T02:11:14;99704.97;;;10.16;100.00
47726;BME280;33483;48.294;16.388;2023-02-19T02:13:41;99705.25;;;10.12;100.00
47726;BME280;33483;48.294;16.388;2023-02-19T02:21:48;99695.25;;;10.28;100.00
47726;BME280;33483;48.294;16.388;2023-02-19T02:31:53;99686.03;;;10.94;100.00
47726;BME280;33483;48.294;16.388;2023-02-19T02:34:28;99684.06;;;11.08;100.00
47726;BME280;33483;48.294;16.388;2023-02-19T02:36:56;99679.94;;;11.14;100.00
47726;BME280;33483;48.294;16.388;2023-02-19T02:39:24;99678.66;;;11.15;100.00
47726;BME280;33483;48.294;16.388;2023-02-19T02:41:56;99664.56;;;11.13;100.00
47726;BME280;33483;48.294;16.388;2023-02-19T02:44:49;99670.75;;;11.19;100.00
47726;BME280;33483;48.294;16.388;2023-02-19T02:47:52;99660.13;;;11.23;100.00
47726;BME280;33483;48.294;16.388;2023-02-19T02:50:24;99660.56;;;11.27;100.00
47726;BME280;33483;48.294;16.388;2023-02-19T02:52:58;99655.97;;;11.30;100.00
47726;BME280;33483;48.294;16.388;2023-02-19T02:55:46;99659.72;;;11.32;100.00
47726;BME280;33483;48.294;16.388;2023-02-19T02:58:14;99637.66;;;11.40;100.00
47726;BME280;33483;48.294;16.388;2023-02-19T03:00:43;99637.34;;;11.44;100.00
47726;BME280;33483;48.294;16.388;2023-02-19T03:03:32;99638.06;;;11.44;100.00
47726;BME280;33483;48.294;16.388;2023-02-19T03:06:02;99635.84;;;11.43;100.00
47726;BME280;33483;48.294;16.388;2023-02-19T03:08:33;99644.38;;;11.45;100.00
47726;BME280;33483;48.294;16.388;2023-02-19T03:13:54;99634.13;;;11.40;100.00
47726;BME280;33483;48.294;16.388;2023-02-19T03:16:43;99637.22;;;11.36;100.00
47726;BME280;33483;48.294;16.388;2023-02-19T03:19:30;99627.69;;;11.31;100.00
47726;BME280;33483;48.294;16.388;2023-02-19T03:22:04;99629.59;;;11.23;100.00
47726;BME280;33483;48.294;16.388;2023-02-19T03:24:44;99637.47;;;11.19;100.00
47726;BME280;33483;48.294;16.388;2023-02-19T03:27:32;99640.88;;;11.12;100.00
47726;BME280;33483;48.294;16.388;2023-02-19T03:30:07;99636.69;;;11.06;100.00
47726;BME280;33483;48.294;16.388;2023-02-19T03:32:41;99640.84;;;10.99;100.00
47726;BME280;33483;48.294;16.388;2023-02-19T03:35:21;99641.91;;;10.96;100.00
47726;BME280;33483;48.294;16.388;2023-02-19T03:38:06;99642.50;;;10.89;100.00
47726;BME280;33483;48.294;16.388;2023-02-19T03:40:38;99647.91;;;10.82;100.00
47726;BME280;33483;48.294;16.388;2023-02-19T03:43:44;99646.50;;;10.75;100.00
47726;BME280;33483;48.294;16.388;2023-02-19T03:48:33;99634.22;;;10.71;100.00
47726;BME280;33483;48.294;16.388;2023-02-19T03:56:13;99643.19;;;10.77;100.00
47726;BME280;33483;48.294;16.388;2023-02-19T04:01:20;99641.19;;;10.77;100.00
47726;BME280;33483;48.294;16.388;2023-02-19T04:04:26;99637.13;;;10.78;100.00
47726;BME280;33483;48.294;16.388;2023-02-19T04:06:46;99639.91;;;10.78;100.00
47726;BME280;33483;48.294;16.388;2023-02-19T04:09:19;99637.97;;;10.73;100.00
47726;BME280;33483;48.294;16.388;2023-02-19T04:11:51;99633.03;;;10.66;100.00
47726;BME280;33483;48.294;16.388;2023-02-19T04:17:04;99626.06;;;10.60;100.00
47726;BME280;33483;48.294;16.388;2023-02-19T04:19:32;99632.44;;;10.55;100.00
47726;BME280;33483;48.294;16.388;2023-02-19T04:22:01;99625.38;;;10.54;100.00
47726;BME280;33483;48.294;16.388;2023-02-19T04:24:31;99630.41;;;10.55;100.00
47726;BME280;33483;48.294;16.388;2023-02-19T04:27:01;99630.94;;;10.54;100.00
47726;BME280;33483;48.294;16.388;2023-02-19T04:29:31;99626.97;;;10.49;100.00
47726;BME280;33483;48.294;16.388;2023-02-19T04:31:58;99629.06;;;10.43;100.00
47726;BME280;33483;48.294;16.388;2023-02-19T04:34:25;99622.47;;;10.46;100.00
47726;BME280;33483;48.294;16.388;2023-02-19T04:36:52;99620.97;;;10.45;100.00
47726;BME280;33483;48.294;16.388;2023-02-19T04:39:19;99624.50;;;10.46;100.00
47726;BME280;33483;48.294;16.388;2023-02-19T04:41:47;99628.53;;;10.45;100.00
47726;BME280;33483;48.294;16.388;2023-02-19T04:44:14;99623.00;;;10.45;100.00
47726;BME280;33483;48.294;16.388;2023-02-19T04:46:41;99627.81;;;10.44;100.00
47726;BME280;33483;48.294;16.388;2023-02-19T04:49:08;99623.50;;;10.43;100.00
47726;BME280;33483;48.294;16.388;2023-02-19T04:51:36;99621.81;;;10.40;100.00
47726;BME280;33483;48.294;16.388;2023-02-19T04:54:03;99619.03;;;10.40;100.00
47726;BME280;33483;48.294;16.388;2023-02-19T04:56:31;99612.44;;;10.43;100.00
47726;BME280;33483;48.294;16.388;2023-02-19T04:58:58;99611.91;;;10.45;100.00
47726;BME280;33483;48.294;16.388;2023-02-19T05:01:25;99603.16;;;10.41;100.00
47726;BME280;33483;48.294;16.388;2023-02-19T05:03:52;99594.41;;;10.37;100.00
47726;BME280;33483;48.294;16.388;2023-02-19T05:06:22;99597.69;;;10.35;100.00
47726;BME280;33483;48.294;16.388;2023-02-19T05:08:49;99598.88;;;10.40;100.00
47726;BME280;33483;48.294;16.388;2023-02-19T05:11:16;99599.94;;;10.37;100.00
47726;BME280;33483;48.294;16.388;2023-02-19T05:13:43;99596.41;;;10.36;100.00
47726;BME280;33483;48.294;16.388;2023-02-19T05:16:12;99590.22;;;10.30;100.00
47726;BME280;33483;48.294;16.388;2023-02-19T05:18:39;99591.78;;;10.26;100.00
47726;BME280;33483;48.294;16.388;2023-02-19T05:21:09;99585.13;;;10.15;100.00
47726;BME280;33483;48.294;16.388;2023-02-19T05:23:37;99576.88;;;10.10;100.00
47726;BME280;33483;48.294;16.388;2023-02-19T05:26:12;99568.06;;;10.06;100.00
47726;BME280;33483;48.294;16.388;2023-02-19T05:28:40;99556.63;;;9.96;100.00
47726;BME280;33483;48.294;16.388;2023-02-19T05:31:08;99545.84;;;9.93;100.00
47726;BME280;33483;48.294;16.388;2023-02-19T05:33:36;99557.22;;;9.89;100.00
47726;BME280;33483;48.294;16.388;2023-02-19T05:36:05;99555.44;;;9.92;100.00
47726;BME280;33483;48.294;16.388;2023-02-19T05:38:32;99563.75;;;9.92;100.00
47726;BME280;33483;48.294;16.388;2023-02-19T05:41:10;99567.78;;;9.91;100.00
47726;BME280;33483;48.294;16.388;2023-02-19T05:43:38;99564.53;;;9.87;100.00
47726;BME280;33483;48.294;16.388;2023-02-19T05:46:06;99553.28;;;9.85;100.00
47726;BME280;33483;48.294;16.388;2023-02-19T05:48:33;99553.28;;;9.85;100.00
47726;BME280;33483;48.294;16.388;2023-02-19T05:51:04;99542.69;;;9.83;100.00
47726;BME280;33483;48.294;16.388;2023-02-19T05:53:36;99543.53;;;9.78;100.00
47726;BME280;33483;48.294;16.388;2023-02-19T05:56:41;99533.97;;;9.79;100.00
47726;BME280;33483;48.294;16.388;2023-02-19T05:59:01;99539.44;;;9.85;100.00
47726;BME280;33483;48.294;16.388;2023-02-19T06:01:29;99537.69;;;9.82;100.00
47726;BME280;33483;48.294;16.388;2023-02-19T06:03:56;99526.91;;;9.78;100.00
47726;BME280;33483;48.294;16.388;2023-02-19T06:06:26;99537.97;;;9.78;100.00
47726;BME280;33483;48.294;16.388;2023-02-19T06:08:53;99533.22;;;9.79;100.00
47726;BME280;33483;48.294;16.388;2023-02-19T06:11:21;99528.44;;;9.79;100.00
47726;BME280;33483;48.294;16.388;2023-02-19T06:13:48;99517.34;;;9.79;100.00
47726;BME280;33483;48.294;16.388;2023-02-19T06:16:16;99525.44;;;9.77;100.00
47726;BME280;33483;48.294;16.388;2023-02-19T06:18:44;99529.38;;;9.82;100.00
47726;BME280;33483;48.294;16.388;2023-02-19T06:21:14;99534.19;;;9.81;100.00
47726;BME280;33483;48.294;16.388;2023-02-19T06:23:45;99530.84;;;9.88;100.00
47726;BME280;33483;48.294;16.388;2023-02-19T06:26:17;99533.31;;;9.92;100.00
47726;BME280;33483;48.294;16.388;2023-02-19T06:28:44;99526.19;;;9.96;100.00
47726;BME280;33483;48.294;16.388;2023-02-19T06:31:12;99529.41;;;10.00;100.00
47726;BME280;33483;48.294;16.388;2023-02-19T06:33:40;99535.59;;;10.06;100.00
47726;BME280;33483;48.294;16.388;2023-02-19T06:36:09;99539.63;;;10.11;100.00
47726;BME280;33483;48.294;16.388;2023-02-19T06:38:37;99525.66;;;10.16;100.00
47726;BME280;33483;48.294;16.388;2023-02-19T06:41:04;99541.25;;;10.19;100.00
47726;BME280;33483;48.294;16.388;2023-02-19T06:43:32;99529.56;;;10.27;100.00
47726;BME280;33483;48.294;16.388;2023-02-19T06:46:03;99529.94;;;10.36;100.00
47726;BME280;33483;48.294;16.388;2023-02-19T06:48:31;99527.16;;;10.36;100.00
47726;BME280;33483;48.294;16.388;2023-02-19T06:50:58;99512.78;;;10.38;100.00
47726;BME280;33483;48.294;16.388;2023-02-19T06:53:25;99506.94;;;10.41;100.00
47726;BME280;33483;48.294;16.388;2023-02-19T06:55:57;99525.94;;;10.50;100.00
47726;BME280;33483;48.294;16.388;2023-02-19T06:58:25;99526.78;;;10.45;100.00
47726;BME280;33483;48.294;16.388;2023-02-19T07:00:52;99522.94;;;10.48;100.00
47726;BME280;33483;48.294;16.388;2023-02-19T07:03:19;99529.06;;;10.60;100.00
47726;BME280;33483;48.294;16.388;2023-02-19T07:05:47;99528.47;;;10.67;100.00
47726;BME280;33483;48.294;16.388;2023-02-19T07:08:16;99521.09;;;10.69;100.00
47726;BME280;33483;48.294;16.388;2023-02-19T07:10:44;99520.69;;;10.78;100.00
47726;BME280;33483;48.294;16.388;2023-02-19T07:13:11;99519.63;;;10.81;100.00
47726;BME280;33483;48.294;16.388;2023-02-19T07:15:38;99530.00;;;10.81;100.00
47726;BME280;33483;48.294;16.388;2023-02-19T07:18:05;99536.50;;;10.83;100.00
47726;BME280;33483;48.294;16.388;2023-02-19T07:20:36;99536.94;;;10.87;100.00
47726;BME280;33483;48.294;16.388;2023-02-19T07:23:03;99538.09;;;10.92;100.00
47726;BME280;33483;48.294;16.388;2023-02-19T07:25:31;99539.00;;;11.00;100.00
47726;BME280;33483;48.294;16.388;2023-02-19T07:27:57;99529.91;;;11.12;100.00
47726;BME280;33483;48.294;16.388;2023-02-19T07:30:25;99530.16;;;11.27;100.00
47726;BME280;33483;48.294;16.388;2023-02-19T07:32:52;99527.06;;;11.31;100.00
47726;BME280;33483;48.294;16.388;2023-02-19T07:35:19;99527.81;;;11.31;100.00
47726;BME280;33483;48.294;16.388;2023-02-19T07:37:46;99531.78;;;11.36;100.00
47726;BME280;33483;48.294;16.388;2023-02-19T07:40:13;99530.59;;;11.31;100.00
47726;BME280;33483;48.294;16.388;2023-02-19T07:42:40;99524.09;;;11.29;100.00
47726;BME280;33483;48.294;16.388;2023-02-19T07:45:08;99506.16;;;11.30;100.00
47726;BME280;33483;48.294;16.388;2023-02-19T07:47:35;99513.09;;;11.23;100.00
47726;BME280;33483;48.294;16.388;2023-02-19T07:50:02;99516.94;;;11.20;100.00
47726;BME280;33483;48.294;16.388;2023-02-19T07:52:29;99508.63;;;11.20;100.00
47726;BME280;33483;48.294;16.388;2023-02-19T07:54:56;99517.78;;;11.28;100.00
47726;BME280;33483;48.294;16.388;2023-02-19T07:57:23;99518.53;;;11.55;100.00
47726;BME280;33483;48.294;16.388;2023-02-19T07:59:53;99519.94;;;11.75;100.00
47726;BME280;33483;48.294;16.388;2023-02-19T08:02:20;99510.94;;;12.28;100.00
47726;BME280;33483;48.294;16.388;2023-02-19T08:05:06;99538.03;;;14.91;100.00
47726;BME280;33483;48.294;16.388;2023-02-19T08:07:34;99538.25;;;17.38;100.00
47726;BME280;33483;48.294;16.388;2023-02-19T08:10:04;99540.44;;;17.64;90.97
47726;BME280;33483;48.294;16.388;2023-02-19T08:12:59;99552.72;;;17.10;90.60
47726;BME280;33483;48.294;16.388;2023-02-19T08:15:45;99566.13;;;15.60;100.00
47726;BME280;33483;48.294;16.388;2023-02-19T08:18:13;99551.75;;;14.43;100.00
47726;BME280;33483;48.294;16.388;2023-02-19T08:20:41;99555.63;;;13.62;100.00
47726;BME280;33483;48.294;16.388;2023-02-19T08:23:08;99559.03;;;14.69;100.00
47726;BME280;33483;48.294;16.388;2023-02-19T08:25:38;99554.59;;;14.23;100.00
47726;BME280;33483;48.294;16.388;2023-02-19T08:28:06;99567.97;;;13.45;100.00
47726;BME280;33483;48.294;16.388;2023-02-19T08:30:33;99560.13;;;13.36;100.00
47726;BME280;33483;48.294;16.388;2023-02-19T08:33:00;99564.00;;;13.13;100.00
47726;BME280;33483;48.294;16.388;2023-02-19T08:35:28;99567.41;;;13.75;100.00
47726;BME280;33483;48.294;16.388;2023-02-19T08:37:56;99566.09;;;12.99;100.00
47726;BME280;33483;48.294;16.388;2023-02-19T08:40:24;99575.59;;;12.83;100.00
47726;BME280;33483;48.294;16.388;2023-02-19T08:42:51;99564.66;;;12.85;100.00
47726;BME280;33483;48.294;16.388;2023-02-19T08:45:18;99567.53;;;13.13;100.00
47726;BME280;33483;48.294;16.388;2023-02-19T08:47:45;99562.03;;;13.21;100.00
47726;BME280;33483;48.294;16.388;2023-02-19T08:50:13;99556.13;;;13.24;100.00
47726;BME280;33483;48.294;16.388;2023-02-19T08:52:40;99569.25;;;13.73;100.00
47726;BME280;33483;48.294;16.388;2023-02-19T08:55:07;99578.19;;;14.14;100.00
47726;BME280;33483;48.294;16.388;2023-02-19T08:57:34;99585.78;;;14.57;100.00
47726;BME280;33483;48.294;16.388;2023-02-19T09:00:04;99594.94;;;14.22;100.00
47726;BME280;33483;48.294;16.388;2023-02-19T09:02:31;99592.72;;;13.56;100.00
47726;BME280;33483;48.294;16.388;2023-02-19T09:04:59;99594.69;;;13.20;100.00
47726;BME280;33483;48.294;16.388;2023-02-19T09:07:26;99597.94;;;13.11;100.00
47726;BME280;33483;48.294;16.388;2023-02-19T09:09:53;99602.81;;;13.39;100.00
47726;BME280;33483;48.294;16.388;2023-02-19T09:12:20;99603.41;;;13.45;100.00
47726;BME280;33483;48.294;16.388;2023-02-19T09:14:47;99596.09;;;13.34;100.00
47726;BME280;33483;48.294;16.388;2023-02-19T09:17:14;99595.69;;;13.51;100.00
47726;BME280;33483;48.294;16.388;2023-02-19T09:19:46;99595.72;;;13.58;100.00
47726;BME280;33483;48.294;16.388;2023-02-19T09:22:16;99595.34;;;13.90;100.00
47726;BME280;33483;48.294;16.388;2023-02-19T09:24:43;99595.53;;;13.92;100.00
47726;BME280;33483;48.294;16.388;2023-02-19T09:27:14;99597.94;;;14.24;100.00
47726;BME280;33483;48.294;16.388;2023-02-19T09:29:41;99596.97;;;14.21;100.00
47726;BME280;33483;48.294;16.388;2023-02-19T09:32:12;99594.94;;;14.22;100.00
47726;BME280;33483;48.294;16.388;2023-02-19T09:34:39;99599.34;;;14.53;100.00
47726;BME280;33483;48.294;16.388;2023-02-19T09:37:08;99579.06;;;14.45;100.00
47726;BME280;33483;48.294;16.388;2023-02-19T09:39:36;99580.34;;;14.44;100.00
47726;BME280;33483;48.294;16.388;2023-02-19T09:42:08;99575.78;;;14.18;100.00
47726;BME280;33483;48.294;16.388;2023-02-19T09:44:37;99576.97;;;14.30;100.00
47726;BME280;33483;48.294;16.388;2023-02-19T09:47:06;99581.47;;;14.41;100.00
47726;BME280;33483;48.294;16.388;2023-02-19T09:49:38;99578.38;;;14.67;100.00
47726;BME280;33483;48.294;16.388;2023-02-19T09:52:07;99580.25;;;14.72;93.70
47726;BME280;33483;48.294;16.388;2023-02-19T09:54:39;99572.25;;;14.68;92.87
47726;BME280;33483;48.294;16.388;2023-02-19T09:57:16;99577.44;;;14.64;88.87
47726;BME280;33483;48.294;16.388;2023-02-19T09:59:45;99584.53;;;14.73;90.17
47726;BME280;33483;48.294;16.388;2023-02-19T10:02:16;99586.97;;;14.84;88.00
47726;BME280;33483;48.294;16.388;2023-02-19T10:04:45;99578.03;;;14.86;83.37
47726;BME280;33483;48.294;16.388;2023-02-19T10:07:13;99583.63;;;14.93;81.66
47726;BME280;33483;48.294;16.388;2023-02-19T10:09:42;99578.44;;;14.97;78.91
47726;BME280;33483;48.294;16.388;2023-02-19T10:12:12;99582.53;;;15.04;77.75
47726;BME280;33483;48.294;16.388;2023-02-19T10:14:42;99594.06;;;15.00;75.36
47726;BME280;33483;48.294;16.388;2023-02-19T10:17:24;99584.94;;;14.92;75.69
47726;BME280;33483;48.294;16.388;2023-02-19T10:19:52;99591.41;;;14.87;75.37
47726;BME280;33483;48.294;16.388;2023-02-19T10:22:21;99605.00;;;14.76;76.72
47726;BME280;33483;48.294;16.388;2023-02-19T10:24:53;99594.78;;;14.78;74.45
47726;BME280;33483;48.294;16.388;2023-02-19T10:27:21;99595.72;;;14.88;74.70
47726;BME280;33483;48.294;16.388;2023-02-19T10:29:52;99594.06;;;15.00;74.62
47726;BME280;33483;48.294;16.388;2023-02-19T10:32:23;99596.63;;;14.91;74.41
47726;BME280;33483;48.294;16.388;2023-02-19T10:37:44;99607.28;;;15.07;72.12
47726;BME280;33483;48.294;16.388;2023-02-19T10:40:16;99603.56;;;15.20;71.05
47726;BME280;33483;48.294;16.388;2023-02-19T10:42:47;99610.09;;;15.52;70.62
47726;BME280;33483;48.294;16.388;2023-02-19T10:45:24;99607.28;;;15.52;68.36
47726;BME280;33483;48.294;16.388;2023-02-19T10:47:57;99615.59;;;15.90;68.05
47726;BME280;33483;48.294;16.388;2023-02-19T10:50:27;99608.94;;;16.40;66.60
47726;BME280;33483;48.294;16.388;2023-02-19T10:52:56;99615.31;;;16.73;64.46
47726;BME280;33483;48.294;16.388;2023-02-19T10:55:29;99606.19;;;16.65;65.23
47726;BME280;33483;48.294;16.388;2023-02-19T10:58:14;99608.56;;;16.36;66.06
47726;BME280;33483;48.294;16.388;2023-02-19T11:00:45;99603.72;;;16.37;65.19
47726;BME280;33483;48.294;16.388;2023-02-19T11:03:20;99607.31;;;16.22;64.89
47726;BME280;33483;48.294;16.388;2023-02-19T11:05:53;99606.94;;;16.18;64.42
47726;BME280;33483;48.294;16.388;2023-02-19T11:08:22;99601.41;;;16.03;64.59
47726;BME280;33483;48.294;16.388;2023-02-19T11:10:53;99592.13;;;15.93;66.03
47726;BME280;33483;48.294;16.388;2023-02-19T11:13:25;99607.06;;;15.81;65.07
47726;BME280;33483;48.294;16.388;2023-02-19T11:15:56;99592.38;;;15.57;66.41
47726;BME280;33483;48.294;16.388;2023-02-19T11:18:28;99596.50;;;15.41;64.69
47726;BME280;33483;48.294;16.388;2023-02-19T11:20:58;99602.25;;;15.28;65.96
47726;BME280;33483;48.294;16.388;2023-02-19T11:23:28;99597.78;;;15.25;67.15
47726;BME280;33483;48.294;16.388;2023-02-19T11:25:57;99587.56;;;15.13;67.13
47726;BME280;33483;48.294;16.388;2023-02-19T11:28:38;99593.47;;;14.94;68.36
47726;BME280;33483;48.294;16.388;2023-02-19T11:33:55;99597.72;;;14.65;69.92
47726;BME280;33483;48.294;16.388;2023-02-19T11:36:24;99594.69;;;14.48;71.22
47726;BME280;33483;48.294;16.388;2023-02-19T11:38:56;99593.16;;;14.32;72.66
47726;BME280;33483;48.294;16.388;2023-02-19T11:47:29;99600.50;;;13.86;67.68
47726;BME280;33483;48.294;16.388;2023-02-19T11:52:28;99597.09;;;13.73;64.39
47726;BME280;33483;48.294;16.388;2023-02-19T11:55:19;99604.47;;;13.63;63.41
47726;BME280;33483;48.294;16.388;2023-02-19T11:57:53;99611.78;;;13.45;67.67
47726;BME280;33483;48.294;16.388;2023-02-19T12:00:30;99625.84;;;13.19;75.64
47726;BME280;33483;48.294;16.388;2023-02-19T12:08:37;99609.31;;;11.86;100.00
47726;BME280;33483;48.294;16.388;2023-02-19T12:11:13;99620.06;;;11.64;100.00
47726;BME280;33483;48.294;16.388;2023-02-19T12:16:22;99614.28;;;11.49;100.00
47726;BME280;33483;48.294;16.388;2023-02-19T12:18:56;99617.06;;;11.49;100.00
47726;BME280;33483;48.294;16.388;2023-02-19T12:26:29;99630.41;;;11.50;100.00
47726;BME280;33483;48.294;16.388;2023-02-19T12:39:44;99638.06;;;10.99;100.00
47726;BME280;33483;48.294;16.388;2023-02-19T12:44:54;99627.94;;;11.02;100.00
47726;BME280;33483;48.294;16.388;2023-02-19T12:47:24;99639.78;;;11.02;100.00
47726;BME280;33483;48.294;16.388;2023-02-19T12:49:59;99623.19;;;11.15;100.00
47726;BME280;33483;48.294;16.388;2023-02-19T12:52:30;99628.97;;;11.17;100.00
47726;BME280;33483;48.294;16.388;2023-02-19T12:55:12;99637.47;;;11.19;100.00
47726;BME280;33483;48.294;16.388;2023-02-19T12:57:45;99631.44;;;11.34;100.00
47726;BME280;33483;48.294;16.388;2023-02-19T13:11:37;99628.75;;;11.15;100.00
47726;BME280;33483;48.294;16.388;2023-02-19T13:16:44;99614.03;;;11.33;100.00
47726;BME280;33483;48.294;16.388;2023-02-19T13:19:12;99616.44;;;11.56;100.00
47726;BME280;33483;48.294;16.388;2023-02-19T13:21:43;99624.28;;;11.83;100.00
47726;BME280;33483;48.294;16.388;2023-02-19T13:24:35;99611.31;;;12.12;100.00
47726;BME280;33483;48.294;16.388;2023-02-19T13:37:36;99587.22;;;12.95;98.16
47726;BME280;33483;48.294;16.388;2023-02-19T13:40:15;99590.13;;;12.89;100.00
47726;BME280;33483;48.294;16.388;2023-02-19T13:42:56;99595.06;;;12.83;100.00
47726;BME280;33483;48.294;16.388;2023-02-19T13:48:00;99608.44;;;12.51;100.00
47726;BME280;33483;48.294;16.388;2023-02-19T13:50:30;99631.63;;;12.20;100.00
47726;BME280;33483;48.294;16.388;2023-02-19T13:52:58;99653.19;;;11.88;100.00
47726;BME280;33483;48.294;16.388;2023-02-19T14:00:56;99659.06;;;10.39;100.00
47726;BME280;33483;48.294;16.388;2023-02-19T14:03:38;99655.19;;;10.05;100.00
47726;BME280;33483;48.294;16.388;2023-02-19T14:06:09;99661.94;;;9.85;100.00
47726;BME280;33483;48.294;16.388;2023-02-19T14:11:16;99664.44;;;9.65;100.00
47726;BME280;33483;48.294;16.388;2023-02-19T14:19:42;99681.22;;;9.48;100.00
47726;BME280;33483;48.294;16.388;2023-02-19T14:22:44;99689.03;;;9.44;100.00
47726;BME280;33483;48.294;16.388;2023-02-19T14:24:53;99715.00;;;9.36;100.00
47726;BME280;33483;48.294;16.388;2023-02-19T14:27:24;99720.06;;;9.32;100.00
47726;BME280;33483;48.294;16.388;2023-02-19T14:29:52;99711.28;;;9.28;100.00
47726;BME280;33483;48.294;16.388;2023-02-19T14:32:19;99702.78;;;9.26;100.00
47726;BME280;33483;48.294;16.388;2023-02-19T14:34:47;99712.84;;;9.23;100.00
47726;BME280;33483;48.294;16.388;2023-02-19T14:37:16;99715.56;;;9.29;100.00
47726;BME280;33483;48.294;16.388;2023-02-19T14:39:49;99714.03;;;9.28;100.00
47726;BME280;33483;48.294;16.388;2023-02-19T14:42:21;99712.56;;;9.27;100.00
47726;BME280;33483;48.294;16.388;2023-02-19T14:44:53;99717.28;;;9.32;100.00
47726;BME280;33483;48.294;16.388;2023-02-19T14:47:23;99728.56;;;9.39;100.00
47726;BME280;33483;48.294;16.388;2023-02-19T14:50:01;99729.75;;;9.44;100.00
47726;BME280;33483;48.294;16.388;2023-02-19T14:52:43;99726.47;;;9.45;100.00
47726;BME280;33483;48.294;16.388;2023-02-19T14:57:52;99729.69;;;9.55;100.00
47726;BME280;33483;48.294;16.388;2023-02-19T15:02:50;99729.53;;;9.71;100.00
47726;BME280;33483;48.294;16.388;2023-02-19T15:05:21;99725.22;;;9.76;100.00